createdAt,value
2018-10-07T19:03:50.225Z,23.47
2018-10-07T19:06:18.429Z,23.80
2018-10-07T19:08:46.635Z,22.60
2018-10-07T19:11:14.825Z,22.70
2018-10-07T19:13:43.049Z,21.90
2018-10-07T19:18:16.578Z,22.83
2018-10-07T19:20:44.876Z,22.57
2018-10-07T19:23:13.311Z,22.47
2018-10-07T19:25:41.548Z,23.20
2018-10-07T19:28:09.734Z,21.30
2018-10-07T19:30:37.986Z,23.63
2018-10-07T19:33:06.225Z,21.20
2018-10-07T19:35:34.449Z,23.30
2018-10-07T19:38:02.645Z,22.63
2018-10-07T19:40:30.840Z,22.80
2018-10-07T19:42:59.049Z,23.33
2018-10-07T19:45:27.295Z,21.40
2018-10-07T19:47:55.415Z,21.57
2018-10-07T19:50:23.625Z,20.97
2018-10-07T19:52:51.991Z,21.57
2018-10-07T19:55:20.161Z,21.03
2018-10-07T19:57:48.397Z,20.93
2018-10-07T20:00:16.623Z,22.17
2018-10-07T20:02:44.859Z,20.90
2018-10-07T20:05:13.121Z,21.60
2018-10-07T20:07:41.322Z,22.40
2018-10-07T20:10:09.549Z,19.17
2018-10-07T20:12:37.748Z,25.30
2018-10-07T20:15:06.017Z,22.13
2018-10-07T20:17:34.321Z,20.80
2018-10-07T20:20:02.581Z,21.40
2018-10-07T20:22:30.797Z,21.43
2018-10-07T20:24:59.009Z,20.83
2018-10-07T20:27:27.253Z,20.20
2018-10-07T20:29:55.453Z,21.73
2018-10-07T20:32:23.717Z,20.77
2018-10-07T20:34:51.913Z,20.93
2018-10-07T20:37:20.145Z,21.87
2018-10-07T20:39:48.337Z,20.87
2018-10-07T20:42:16.624Z,23.00
2018-10-07T20:44:44.845Z,20.40
2018-10-07T20:47:13.100Z,21.17
2018-10-07T20:49:41.365Z,21.23
2018-10-07T20:52:09.595Z,21.57
2018-10-07T20:54:37.817Z,21.07
2018-10-07T20:57:06.084Z,21.60
2018-10-07T20:59:34.308Z,21.77
2018-10-07T21:02:02.557Z,23.27
2018-10-07T21:04:30.749Z,21.30
2018-10-07T21:06:58.978Z,22.47
2018-10-07T21:09:27.217Z,23.90
2018-10-07T21:11:55.486Z,23.23
2018-10-07T21:14:23.758Z,22.73
2018-10-07T21:16:52.022Z,24.27
2018-10-07T21:19:20.205Z,22.53
2018-10-07T21:21:48.460Z,23.90
2018-10-07T21:24:16.707Z,22.03
2018-10-07T21:26:44.940Z,22.67
2018-10-07T21:29:13.148Z,24.37
2018-10-07T21:31:41.371Z,23.80
2018-10-07T21:34:09.590Z,24.37
2018-10-07T21:36:37.845Z,23.60
2018-10-07T21:39:07.506Z,24.40
2018-10-07T21:41:35.781Z,25.17
2018-10-07T21:44:04.001Z,20.90
2018-10-07T21:46:32.234Z,22.70
2018-10-07T21:49:00.429Z,24.13
2018-10-07T21:51:28.662Z,24.37
2018-10-07T21:53:56.897Z,24.30
2018-10-07T21:56:25.137Z,25.13
2018-10-07T21:58:53.380Z,24.60
2018-10-07T22:01:21.641Z,25.60
2018-10-07T22:03:49.824Z,24.40
2018-10-07T22:06:18.033Z,26.30
2018-10-07T22:08:46.409Z,24.57
2018-10-07T22:11:14.682Z,26.80
2018-10-07T22:13:42.920Z,27.70
2018-10-07T22:16:11.137Z,27.70
2018-10-07T22:18:39.336Z,27.30
2018-10-07T22:21:07.556Z,26.70
2018-10-07T22:23:35.792Z,26.73
2018-10-07T22:26:03.979Z,27.60
2018-10-07T22:28:32.181Z,27.57
2018-10-07T22:31:00.525Z,28.83
2018-10-07T22:33:28.744Z,28.90
2018-10-07T22:35:56.970Z,26.33
2018-10-07T22:38:25.174Z,28.57
2018-10-07T22:40:53.376Z,27.60
2018-10-07T22:43:21.598Z,27.80
2018-10-07T22:45:50.037Z,28.57
2018-10-07T22:48:18.244Z,28.43
2018-10-07T22:50:46.516Z,27.23
2018-10-07T22:53:14.722Z,27.73
2018-10-07T22:55:42.913Z,29.27
2018-10-07T22:58:11.101Z,28.93
2018-10-07T23:00:39.325Z,30.80
2018-10-07T23:03:07.553Z,29.40
2018-10-07T23:05:35.797Z,30.23
2018-10-07T23:08:04.032Z,30.37
2018-10-07T23:10:32.245Z,29.20
2018-10-07T23:13:00.454Z,28.47
2018-10-07T23:15:28.648Z,28.73
2018-10-07T23:17:56.872Z,28.80
2018-10-07T23:20:25.101Z,29.10
2018-10-07T23:22:53.351Z,31.27
2018-10-07T23:25:21.713Z,31.83
2018-10-07T23:27:49.949Z,31.70
2018-10-07T23:30:18.141Z,30.30
2018-10-07T23:32:46.345Z,28.83
2018-10-07T23:35:14.532Z,32.80
2018-10-07T23:37:42.740Z,32.50
2018-10-07T23:40:10.947Z,29.70
2018-10-07T23:42:39.165Z,31.77
2018-10-07T23:45:07.363Z,31.53
2018-10-07T23:47:35.561Z,30.73
2018-10-07T23:50:03.757Z,31.57
2018-10-07T23:52:31.956Z,30.47
2018-10-07T23:55:00.188Z,32.47
2018-10-07T23:57:28.395Z,33.30
2018-10-07T23:59:56.589Z,33.40
